Time;durP1;ratioP1;P1;durP2;ratioP2;P2;SDS_P1;SDS_P2;PMS_P1;PMS_P2;Temp;Humidity;BMP_temperature;BMP_pressure;BME280_temperature;BME280_humidity;BME280_pressure;Samples;Min_cycle;Max_cycle;Signal;HPM_P1;HPM_P2
2022/12/16 00:03:00;;;;;;;50.03;25.75;;;;;;;1.32;100.00;100843.72;10542362;28;20528;-75
2022/12/16 00:08:01;;;;;;;50.27;25.77;;;;;;;1.27;100.00;100824.84;10540825;28;20032;-75
2022/12/16 00:13:02;;;;;;;48.90;25.40;;;;;;;1.73;100.00;100916.19;10541532;28;20032;-75
2022/12/16 00:18:02;;;;;;;44.92;24.33;;;;;;;1.72;100.00;100898.81;10541654;28;20040;-75
2022/12/16 00:23:03;;;;;;;52.40;25.98;;;;;;;1.67;100.00;100879.91;10515003;28;20048;-75
2022/12/16 00:28:04;;;;;;;42.22;25.33;;;;;;;1.56;100.00;100875.38;10458168;28;20167;-75
2022/12/16 00:33:05;;;;;;;47.03;24.27;;;;;;;1.56;100.00;100864.91;10457046;28;20136;-75
2022/12/16 00:38:06;;;;;;;47.70;25.45;;;;;;;1.56;100.00;100870.16;10457474;28;20049;-75
2022/12/16 00:43:07;;;;;;;59.53;26.30;;;;;;;1.02;100.00;100768.00;10456796;28;20520;-75
2022/12/16 00:48:08;;;;;;;51.90;25.92;;;;;;;1.52;100.00;100849.47;10457001;28;20064;-75
2022/12/16 00:53:09;;;;;;;59.65;26.25;;;;;;;1.41;100.00;100847.56;10456393;28;20087;-75
2022/12/16 00:58:10;;;;;;;47.72;26.90;;;;;;;0.95;100.00;100778.94;10456576;28;20108;-75
2022/12/16 01:03:11;;;;;;;53.75;26.83;;;;;;;1.48;100.00;100854.06;10455791;28;20408;-75
2022/12/16 01:08:12;;;;;;;46.38;26.20;;;;;;;1.51;100.00;100853.03;10455710;28;20091;-75
2022/12/16 01:13:12;;;;;;;45.83;26.17;;;;;;;1.35;100.00;100824.38;10507023;28;20149;-75
2022/12/16 01:18:14;;;;;;;47.25;26.08;;;;;;;1.38;100.00;100829.41;10538489;28;20048;-75
2022/12/16 01:23:15;;;;;;;50.22;26.02;;;;;;;1.14;100.00;100803.03;10538579;28;20118;-75
2022/12/16 01:28:15;;;;;;;47.53;24.48;;;;;;;1.42;100.00;100846.59;10538584;28;20144;-75
2022/12/16 01:33:16;;;;;;;51.17;27.02;;;;;;;1.11;100.00;100792.75;10538368;28;20172;-75
2022/12/16 01:38:17;;;;;;;48.05;24.98;;;;;;;1.43;100.00;100839.59;10538409;28;20043;-75
2022/12/16 01:43:21;;;;;;;54.95;25.23;;;;;;;1.57;100.00;100866.56;10538392;28;20052;-75
2022/12/16 01:48:49;;;;;;;49.63;26.30;;;;;;;1.27;100.00;100798.69;10538006;28;20395;-75
2022/12/16 01:53:56;;;;;;;47.15;25.90;;;;;;;1.49;100.00;100845.25;10537542;28;20055;-75
2022/12/16 01:58:58;;;;;;;47.33;25.02;;;;;;;1.53;100.00;100841.53;10537132;28;20047;-75
2022/12/16 02:04:02;;;;;;;49.22;26.02;;;;;;;1.54;100.00;100851.06;10538057;28;20518;-75
2022/12/16 02:09:07;;;;;;;56.00;25.83;;;;;;;1.55;100.00;100860.59;10519424;28;20408;-75
2022/12/16 02:14:27;;;;;;;45.90;25.35;;;;;;;1.16;100.00;100801.13;10495419;28;20413;-76
2022/12/16 02:19:55;;;;;;;49.25;26.17;;;;;;;1.73;100.00;100894.41;10536714;28;20051;-75
2022/12/16 02:25:10;;;;;;;58.13;26.50;;;;;;;1.75;100.00;100901.22;10537005;28;20040;-75
2022/12/16 02:30:28;;;;;;;47.72;24.55;;;;;;;1.82;100.00;100914.78;10513428;28;20495;-76
2022/12/16 02:35:51;;;;;;;52.65;26.13;;;;;;;1.81;100.00;100913.94;10516274;28;20403;-75
2022/12/16 02:41:01;;;;;;;48.58;26.15;;;;;;;2.02;100.00;100940.53;10535033;28;20122;-75
2022/12/16 02:46:05;;;;;;;42.45;23.38;;;;;;;1.69;100.00;100866.75;10509541;28;20087;-75
2022/12/16 02:51:05;;;;;;;40.88;22.58;;;;;;;2.22;100.00;100941.06;10502581;28;20040;-75
2022/12/16 02:56:25;;;;;;;48.65;25.35;;;;;;;2.21;100.00;100931.50;10501924;28;20396;-76
2022/12/16 03:01:44;;;;;;;49.65;26.00;;;;;;;2.16;100.00;100929.19;10500939;28;20067;-77
2022/12/16 03:06:48;;;;;;;46.47;25.10;;;;;;;2.09;100.00;100937.53;10502273;28;20037;-76
2022/12/16 03:11:51;;;;;;;55.92;26.23;;;;;;;1.95;100.00;100920.94;10501462;28;20446;-76
2022/12/16 03:16:53;;;;;;;53.85;26.58;;;;;;;1.82;100.00;100920.88;10501974;28;20127;-75
2022/12/16 03:22:03;;;;;;;54.78;26.50;;;;;;;1.42;100.00;100854.47;10499635;28;20109;-75
2022/12/16 03:27:26;;;;;;;64.07;25.20;;;;;;;1.61;100.00;100880.31;10473818;28;20088;-73
2022/12/16 03:32:57;;;;;;;64.30;25.75;;;;;;;2.04;100.00;100943.09;10518591;28;20048;-71
2022/12/16 03:38:01;;;;;;;59.13;26.33;;;;;;;1.77;100.00;100927.34;10541553;28;20052;-72
2022/12/16 03:43:03;;;;;;;54.47;26.20;;;;;;;1.43;100.00;100869.22;10542632;28;20040;-72
2022/12/16 03:48:07;;;;;;;50.03;22.75;;;;;;;1.88;100.00;100972.00;10542696;28;20052;-72
2022/12/16 03:53:08;;;;;;;49.42;21.92;;;;;;;1.84;100.00;100978.41;10542654;28;20496;-74
2022/12/16 03:58:09;;;;;;;58.78;22.48;;;;;;;1.71;100.00;100975.72;10541096;28;20043;-74
2022/12/16 04:03:10;;;;;;;50.45;22.52;;;;;;;1.69;100.00;100985.44;10541784;28;20105;-72
2022/12/16 04:08:10;;;;;;;51.30;22.52;;;;;;;1.54;100.00;100957.59;10540721;28;20042;-72
2022/12/16 04:29:15;;;;;;;51.22;21.20;;;;;;;1.77;100.00;101004.13;10540399;28;20035;-71
2022/12/16 04:34:25;;;;;;;54.90;21.55;;;;;;;1.24;100.00;100914.03;10538164;28;20131;-72
